Kezdőlap
METAR-TAF:

METAR-TAF

Repülőterek :

Nancy, Franciaország

földrajzi szélesség: 48-41N, földrajzi hosszúság: 006-13E, magasság: 225 m

Jelenlegi meteorológiai megfigyelések

A jelentés 32 perccel ezelõtt készült, 14:30 UTC
Északi szél 10 kt, észak-északnyugati és északkeleti között változik
Hőmérséklet 23°C
Páratartalom 73%
Légköri nyomás 1016 hPa
Látótávolság 10 km, vagy több
Szórványos felhőzet 2100 lábon

METAR: LFSN 191430Z AUTO 01010KT 340V040 9999 SCT021 23/18 Q1016

Idő: 17:02 (15:02 UTC)


TAF: hiányzik

Meteorológiai megfigyelések és előrejelzések több, mint 4000 repülőtéren (METAR és TAF jelentéseket).

A térképen piros és sárga pontok jelzik az elérhető meteorológiai állomásokat.

Mozgassa az egeret a pont fölött, hogy megjelenjen az állomás neve.

Azután kattintson az időjárási megfigyelések és előrejelzések megtekintéséhez.

A térkép megváltoztatása: kattintson a fekete keresztel jelölt zöld gombra ráközelítéshez, a vonallal jelölt zöld gombra távolításhoz, vagy a zöld nyilakra a szomszédos térképek eléréséhez.


METAR-TAF: